Time;durP1;ratioP1;P1;durP2;ratioP2;P2;SDS_P1;SDS_P2;PMS_P1;PMS_P2;Temp;Humidity;BMP_temperature;BMP_pressure;BME280_temperature;BME280_humidity;BME280_pressure;Samples;Min_cycle;Max_cycle;Signal;HPM_P1;HPM_P2
2023/01/10 00:01:44;;;;;;;12.00;8.93;;;5.90;99.90;;;;;;5139418;27;20467;-65
2023/01/10 00:04:11;;;;;;;17.97;11.10;;;5.90;99.90;;;;;;5140035;27;20482;-65
2023/01/10 00:06:38;;;;;;;14.47;9.93;;;5.90;99.90;;;;;;5139839;27;20458;-65
2023/01/10 00:09:05;;;;;;;24.37;11.33;;;5.90;99.90;;;;;;5139519;27;20469;-65
2023/01/10 00:14:18;;;;;;;16.73;10.90;;;5.90;99.90;;;;;;5139734;27;20438;-65
2023/01/10 00:16:45;;;;;;;14.73;11.10;;;5.80;24.20;;;;;;5139449;27;20436;-64
2023/01/10 00:19:12;;;;;;;14.57;11.30;;;5.90;99.90;;;;;;5139563;27;20577;-65
2023/01/10 00:21:39;;;;;;;15.60;10.80;;;5.90;99.90;;;;;;5139405;27;20467;-65
2023/01/10 00:24:16;;;;;;;20.27;11.27;;;5.90;99.90;;;;;;5139085;27;20466;-65
2023/01/10 00:26:49;;;;;;;16.83;10.73;;;5.90;1.00;;;;;;5139211;27;20891;-65
2023/01/10 00:29:19;;;;;;;14.63;11.13;;;5.80;28.10;;;;;;5138864;27;20923;-65
2023/01/10 00:31:46;;;;;;;17.97;11.40;;;5.90;1.00;;;;;;5139318;27;20465;-64
2023/01/10 00:34:13;;;;;;;17.10;10.80;;;5.90;99.90;;;;;;5139801;27;20464;-65
2023/01/10 00:36:41;;;;;;;14.23;9.70;;;5.80;99.90;;;;;;5139554;27;20458;-64
2023/01/10 00:39:12;;;;;;;12.93;10.10;;;5.80;1.00;;;;;;5139121;27;20459;-65
2023/01/10 00:44:26;;;;;;;14.63;9.53;;;5.80;1.00;;;;;;5139029;27;20538;-64
2023/01/10 00:46:53;;;;;;;19.60;11.50;;;5.80;99.90;;;;;;5138927;27;20458;-65
2023/01/10 00:49:21;;;;;;;15.73;9.57;;;5.80;1.00;;;;;;5139618;27;20541;-64
2023/01/10 00:51:48;;;;;;;16.47;9.30;;;5.80;1.00;;;;;;5139304;27;20465;-64
2023/01/10 00:54:16;;;;;;;16.93;10.97;;;5.80;99.90;;;;;;5138854;27;20473;-64
2023/01/10 00:56:43;;;;;;;15.33;9.67;;;5.80;1.00;;;;;;5138811;27;20433;-65
2023/01/10 00:59:10;;;;;;;14.67;9.70;;;5.70;1.00;;;;;;5138911;27;20440;-64
2023/01/10 01:01:38;;;;;;;16.07;9.40;;;5.80;1.00;;;;;;5138735;27;20934;-65
2023/01/10 01:04:05;;;;;;;17.83;9.87;;;5.80;1.00;;;;;;5138808;27;20463;-64
2023/01/10 01:06:33;;;;;;;12.63;7.90;;;5.70;1.00;;;;;;5138949;27;20871;-65
2023/01/10 01:09:00;;;;;;;13.87;9.23;;;5.70;99.90;;;;;;5138402;27;20891;-64
2023/01/10 01:11:27;;;;;;;10.33;7.53;;;5.80;99.90;;;;;;5138640;27;20465;-64
2023/01/10 01:13:54;;;;;;;14.10;8.17;;;5.70;97.70;;;;;;5138694;27;20915;-65
2023/01/10 01:16:22;;;;;;;15.20;8.50;;;5.70;1.00;;;;;;5138289;27;20734;-65
2023/01/10 01:18:50;;;;;;;17.77;7.73;;;5.70;1.00;;;;;;5138448;27;20463;-64
2023/01/10 01:21:20;;;;;;;12.20;7.20;;;5.70;99.90;;;;;;5138088;27;20490;-64
2023/01/10 01:23:47;;;;;;;12.00;7.10;;;5.70;99.90;;;;;;5138324;27;20494;-64
2023/01/10 01:26:14;;;;;;;11.50;7.00;;;5.70;99.90;;;;;;5138517;27;20470;-64
2023/01/10 01:28:41;;;;;;;15.00;7.80;;;5.70;99.90;;;;;;5138120;27;20454;-64
2023/01/10 01:31:09;;;;;;;10.83;7.00;;;5.60;1.00;;;;;;5137315;27;20915;-65
2023/01/10 01:33:36;;;;;;;18.57;6.83;;;5.60;99.90;;;;;;5138138;27;20466;-64
2023/01/10 01:36:08;;;;;;;12.73;7.30;;;5.60;1.00;;;;;;5138294;27;20463;-64
2023/01/10 01:38:35;;;;;;;14.03;8.43;;;5.50;99.90;;;;;;5138402;27;20474;-65
2023/01/10 01:41:55;;;;;;;9.10;6.27;;;5.50;1.00;;;;;;5137847;28;20487;-64
2023/01/10 01:44:01;;;;;;;14.77;7.30;;;5.50;1.00;;;;;;5137791;28;20433;-64
2023/01/10 01:46:28;;;;;;;10.67;6.73;;;5.50;1.00;;;;;;5138095;28;20458;-64
2023/01/10 01:48:56;;;;;;;15.67;7.77;;;5.50;99.90;;;;;;5138018;28;20467;-64
2023/01/10 01:51:28;;;;;;;12.80;6.97;;;5.50;99.90;;;;;;5138360;28;20447;-64
2023/01/10 01:53:58;;;;;;;16.73;6.90;;;5.50;1.00;;;;;;5138134;28;20902;-65
2023/01/10 01:56:30;;;;;;;14.40;6.83;;;5.50;99.90;;;;;;5137656;27;20462;-64
2023/01/10 01:59:02;;;;;;;12.50;6.20;;;5.50;99.90;;;;;;5137606;28;20458;-64
2023/01/10 02:01:31;;;;;;;10.97;6.20;;;5.50;99.90;;;;;;5138014;28;20472;-64
2023/01/10 02:04:03;;;;;;;12.10;5.07;;;5.50;1.00;;;;;;5137992;28;20462;-64
2023/01/10 02:06:31;;;;;;;13.40;5.50;;;5.50;1.00;;;;;;5138128;28;20433;-64
2023/01/10 02:09:05;;;;;;;14.13;5.50;;;5.50;1.00;;;;;;5137868;28;20883;-65
2023/01/10 02:11:33;;;;;;;9.80;5.00;;;5.60;99.90;;;;;;5138365;28;20867;-64
2023/01/10 02:14:05;;;;;;;8.83;4.70;;;5.50;1.00;;;;;;5138001;28;20462;-64
2023/01/10 02:16:32;;;;;;;11.00;5.40;;;5.50;1.00;;;;;;5138344;28;20462;-64
2023/01/10 02:18:59;;;;;;;10.63;5.53;;;5.40;1.00;;;;;;5137609;28;20436;-64
2023/01/10 02:22:03;;;;;;;13.47;6.07;;;5.50;1.00;;;;;;5137523;28;20498;-64
2023/01/10 02:24:55;;;;;;;13.97;5.90;;;5.50;1.00;;;;;;5137853;28;20462;-64
2023/01/10 02:27:26;;;;;;;13.10;4.87;;;5.50;1.00;;;;;;5137729;27;20458;-64
2023/01/10 02:30:27;;;;;;;8.60;4.63;;;5.50;1.00;;;;;;5139225;27;20482;-64
2023/01/10 02:33:00;;;;;;;8.00;4.33;;;5.50;99.90;;;;;;5141558;27;20444;-64
2023/01/10 02:35:53;;;;;;;9.43;4.83;;;5.50;99.90;;;;;;5141784;27;20458;-64
2023/01/10 02:38:32;;;;;;;7.50;4.80;;;5.50;99.90;;;;;;5141990;27;20462;-64
2023/01/10 02:41:09;;;;;;;10.40;4.60;;;5.50;99.90;;;;;;5141606;27;20516;-64
2023/01/10 02:43:41;;;;;;;18.60;5.43;;;5.50;78.50;;;;;;5141378;27;20462;-64
2023/01/10 02:46:13;;;;;;;10.10;5.00;;;5.50;99.90;;;;;;5141512;27;20477;-64
2023/01/10 02:48:42;;;;;;;15.00;4.10;;;5.50;61.10;;;;;;5141567;27;20434;-64
2023/01/10 02:51:17;;;;;;;14.53;4.90;;;5.50;1.00;;;;;;5141212;27;20436;-64
2023/01/10 02:53:48;;;;;;;15.73;4.50;;;5.40;1.00;;;;;;5141198;27;20526;-64
2023/01/10 02:57:00;;;;;;;14.07;4.80;;;5.40;1.00;;;;;;5141366;27;20465;-64
2023/01/10 03:00:03;;;;;;;13.23;5.37;;;5.30;1.00;;;;;;5137943;27;20919;-64
2023/01/10 03:02:43;;;;;;;12.80;4.53;;;5.30;1.00;;;;;;5141223;27;20465;-64
2023/01/10 03:05:23;;;;;;;14.00;4.50;;;5.30;1.00;;;;;;5141271;27;20454;-64
2023/01/10 03:07:57;;;;;;;7.97;4.10;;;5.20;1.00;;;;;;5141076;27;20485;-64
2023/01/10 03:10:30;;;;;;;8.87;4.20;;;5.20;1.00;;;;;;5141419;27;20442;-65
2023/01/10 03:13:02;;;;;;;15.43;4.70;;;5.20;1.00;;;;;;5141095;27;20507;-64
2023/01/10 03:15:34;;;;;;;9.30;4.40;;;5.20;1.00;;;;;;5139839;27;20451;-64
2023/01/10 03:18:04;;;;;;;10.10;4.13;;;5.20;99.90;;;;;;5141040;27;20761;-64
2023/01/10 03:20:36;;;;;;;15.03;4.90;;;5.20;99.90;;;;;;5141165;27;20464;-64
2023/01/10 03:23:05;;;;;;;11.60;5.60;;;5.10;99.90;;;;;;5140419;27;20454;-64
2023/01/10 03:25:38;;;;;;;12.37;4.77;;;5.10;99.90;;;;;;5141094;27;20459;-64
2023/01/10 03:28:08;;;;;;;12.23;5.00;;;5.10;99.90;;;;;;5140808;27;20455;-64
2023/01/10 03:30:42;;;;;;;16.80;6.20;;;5.00;99.90;;;;;;5140218;27;20478;-64
2023/01/10 03:33:10;;;;;;;17.23;5.00;;;5.00;99.90;;;;;;5140255;27;20462;-64
2023/01/10 03:35:50;;;;;;;16.50;4.63;;;5.10;99.90;;;;;;5140600;27;20462;-64
2023/01/10 03:38:24;;;;;;;13.70;5.90;;;5.10;99.90;;;;;;5140332;27;20433;-64
2023/01/10 03:40:58;;;;;;;14.33;4.33;;;5.20;99.90;;;;;;5139962;27;20791;-65
2023/01/10 03:46:24;;;;;;;15.00;6.33;;;5.20;83.20;;;;;;5140186;27;20431;-64
2023/01/10 03:48:52;;;;;;;15.10;7.00;;;5.20;10.70;;;;;;5140152;27;20485;-64
2023/01/10 03:51:21;;;;;;;17.23;4.93;;;5.20;1.00;;;;;;5139988;27;20462;-64
2023/01/10 03:53:48;;;;;;;8.30;4.93;;;5.20;1.00;;;;;;5140495;27;20461;-64
2023/01/10 03:56:15;;;;;;;11.50;5.33;;;5.30;1.00;;;;;;5140188;27;20465;-64
2023/01/10 03:58:42;;;;;;;16.13;5.07;;;5.20;1.00;;;;;;5139991;27;20749;-64
2023/01/10 04:01:10;;;;;;;18.13;5.73;;;5.20;1.00;;;;;;5139764;27;20490;-64
2023/01/10 04:03:37;;;;;;;12.00;4.43;;;5.20;1.00;;;;;;5139946;27;20875;-64
2023/01/10 04:06:04;;;;;;;12.40;4.37;;;5.20;1.00;;;;;;5140247;27;20458;-64
2023/01/10 04:08:33;;;;;;;10.10;4.60;;;5.20;99.90;;;;;;5140329;27;20458;-64
2023/01/10 04:11:00;;;;;;;12.87;3.43;;;5.20;99.90;;;;;;5139651;27;20895;-64
2023/01/10 04:13:27;;;;;;;17.97;3.93;;;5.20;99.90;;;;;;5137115;27;20474;-64
2023/01/10 04:15:54;;;;;;;9.60;3.87;;;5.20;99.90;;;;;;5139467;27;20459;-64
2023/01/10 04:18:22;;;;;;;11.87;4.70;;;5.20;99.90;;;;;;5139779;27;20459;-64
2023/01/10 04:20:49;;;;;;;16.60;5.80;;;5.20;99.90;;;;;;5139105;27;20493;-65
2023/01/10 04:23:16;;;;;;;9.70;4.37;;;5.20;99.90;;;;;;5139559;27;20861;-64
2023/01/10 04:25:47;;;;;;;13.03;4.70;;;5.20;99.90;;;;;;5139532;27;20892;-64
2023/01/10 04:28:14;;;;;;;10.67;4.17;;;5.20;99.90;;;;;;5139550;27;20956;-64
2023/01/10 04:30:41;;;;;;;9.53;3.90;;;5.10;99.90;;;;;;5138036;27;20493;-64
2023/01/10 04:33:10;;;;;;;8.70;3.60;;;5.10;99.90;;;;;;5138746;27;20463;-64
2023/01/10 04:35:37;;;;;;;13.13;3.93;;;5.00;99.90;;;;;;5139313;27;20764;-64
2023/01/10 04:38:04;;;;;;;8.73;3.47;;;5.00;99.90;;;;;;5139146;27;20438;-64
2023/01/10 04:40:31;;;;;;;9.33;3.53;;;5.00;99.90;;;;;;5139308;27;20458;-64
2023/01/10 04:43:00;;;;;;;15.47;7.37;;;5.00;99.90;;;;;;5138791;27;20470;-64
2023/01/10 04:45:27;;;;;;;8.60;3.97;;;5.00;99.90;;;;;;5138826;27;20462;-64
2023/01/10 04:47:55;;;;;;;6.03;3.40;;;5.00;99.90;;;;;;5138965;27;20462;-64
2023/01/10 04:50:23;;;;;;;9.03;4.23;;;5.10;99.90;;;;;;5139140;27;20918;-65
2023/01/10 04:52:50;;;;;;;16.03;4.90;;;5.00;99.90;;;;;;5138296;27;20852;-64
2023/01/10 04:55:17;;;;;;;14.67;4.77;;;5.00;99.90;;;;;;5138946;27;20562;-64
2023/01/10 04:57:45;;;;;;;16.63;3.90;;;5.00;99.90;;;;;;5138774;27;20464;-64
2023/01/10 05:00:14;;;;;;;11.90;4.53;;;5.00;99.90;;;;;;5139125;27;20459;-64
2023/01/10 05:02:42;;;;;;;13.20;4.27;;;5.00;99.90;;;;;;5139151;27;20576;-64
2023/01/10 05:05:10;;;;;;;11.53;3.90;;;5.00;99.90;;;;;;5138899;27;20486;-64
2023/01/10 05:07:37;;;;;;;11.20;3.80;;;5.00;99.90;;;;;;5138735;27;20454;-64
2023/01/10 05:10:06;;;;;;;10.70;4.20;;;5.00;99.90;;;;;;5139117;27;20497;-64
2023/01/10 05:12:33;;;;;;;12.43;3.90;;;5.00;99.90;;;;;;5138707;27;20461;-64
2023/01/10 05:15:01;;;;;;;18.80;5.20;;;5.00;99.90;;;;;;5138202;27;20461;-65
2023/01/10 05:17:29;;;;;;;12.27;4.63;;;5.00;99.90;;;;;;5138807;27;20462;-64
2023/01/10 05:19:56;;;;;;;12.03;4.00;;;5.00;99.90;;;;;;5138687;27;20929;-64
2023/01/10 05:22:23;;;;;;;11.77;4.37;;;5.00;99.90;;;;;;5138649;27;20513;-64
2023/01/10 05:24:50;;;;;;;15.57;3.73;;;5.00;99.90;;;;;;5138346;27;20901;-64
2023/01/10 05:27:18;;;;;;;13.60;4.90;;;5.00;99.90;;;;;;5138650;27;20879;-64
2023/01/10 05:29:45;;;;;;;13.93;4.53;;;5.00;99.90;;;;;;5137384;27;20913;-64
2023/01/10 05:32:12;;;;;;;15.53;3.77;;;5.00;99.90;;;;;;5138421;27;20459;-64
2023/01/10 05:34:40;;;;;;;10.73;3.83;;;5.00;99.90;;;;;;5139034;27;20906;-65
2023/01/10 05:37:08;;;;;;;12.13;4.60;;;5.00;99.90;;;;;;5139512;27;20455;-65
2023/01/10 05:39:35;;;;;;;11.77;4.50;;;5.00;99.90;;;;;;5139401;27;20458;-64
2023/01/10 05:42:02;;;;;;;14.10;5.13;;;5.00;99.90;;;;;;5138615;27;20517;-65
2023/01/10 05:44:32;;;;;;;12.97;4.60;;;5.10;99.90;;;;;;5138967;27;20474;-64
2023/01/10 05:46:59;;;;;;;14.67;6.37;;;5.10;99.90;;;;;;5138179;27;20445;-64
2023/01/10 05:49:26;;;;;;;13.37;6.70;;;5.00;99.90;;;;;;5137828;27;20466;-65
2023/01/10 05:51:55;;;;;;;16.23;5.90;;;5.10;99.90;;;;;;5138011;28;20428;-65
2023/01/10 05:54:22;;;;;;;15.43;6.40;;;5.00;99.90;;;;;;5138117;28;20437;-65
2023/01/10 05:56:49;;;;;;;21.67;6.93;;;5.10;99.90;;;;;;5137111;28;20458;-65
2023/01/10 05:59:17;;;;;;;14.03;6.50;;;5.10;99.90;;;;;;5138072;28;20458;-65
2023/01/10 06:01:44;;;;;;;16.13;6.73;;;5.10;99.90;;;;;;5138617;27;20559;-65
2023/01/10 06:04:11;;;;;;;14.30;6.60;;;5.10;99.90;;;;;;5141663;27;20433;-65
2023/01/10 06:06:38;;;;;;;16.73;6.67;;;5.10;99.90;;;;;;5141960;27;20450;-64
2023/01/10 06:09:06;;;;;;;16.80;6.47;;;5.10;99.90;;;;;;5141889;27;20441;-65
2023/01/10 06:11:37;;;;;;;15.00;5.67;;;5.10;99.90;;;;;;5140529;27;20732;-65
2023/01/10 06:14:06;;;;;;;17.23;6.40;;;5.20;99.90;;;;;;5140706;27;20926;-65
2023/01/10 06:16:33;;;;;;;11.53;6.40;;;5.20;99.90;;;;;;5140101;27;20465;-65
2023/01/10 06:19:00;;;;;;;20.47;7.17;;;5.10;99.90;;;;;;5139545;27;20470;-65
2023/01/10 06:21:28;;;;;;;12.23;6.47;;;5.10;99.90;;;;;;5139285;27;20479;-65
2023/01/10 06:23:56;;;;;;;14.53;6.77;;;5.10;99.90;;;;;;5140656;27;20757;-65
2023/01/10 06:26:25;;;;;;;18.70;7.70;;;5.10;99.90;;;;;;5141934;27;20751;-65
2023/01/10 06:28:52;;;;;;;19.27;7.20;;;5.20;99.90;;;;;;5141495;27;20736;-66
2023/01/10 06:31:19;;;;;;;20.43;7.30;;;5.20;99.90;;;;;;5141196;27;20454;-66
2023/01/10 06:33:46;;;;;;;14.60;6.70;;;5.10;99.90;;;;;;5141663;27;20454;-65
2023/01/10 06:36:13;;;;;;;18.17;6.60;;;5.20;99.90;;;;;;5140563;27;20454;-66
2023/01/10 06:38:40;;;;;;;14.37;6.30;;;5.20;99.90;;;;;;5140426;27;20624;-65
2023/01/10 06:41:12;;;;;;;22.93;6.13;;;5.20;80.50;;;;;;5136018;27;20446;-65
2023/01/10 06:43:42;;;;;;;18.80;7.57;;;5.20;70.30;;;;;;5139544;27;20493;-66
2023/01/10 06:46:09;;;;;;;19.30;8.10;;;5.20;86.50;;;;;;5139721;27;20462;-65
2023/01/10 06:48:37;;;;;;;16.77;7.47;;;5.20;38.80;;;;;;5139856;27;20515;-65
2023/01/10 06:51:05;;;;;;;29.37;9.63;;;5.20;27.50;;;;;;5140670;27;20454;-65
2023/01/10 06:53:32;;;;;;;19.60;8.60;;;5.20;29.30;;;;;;5140885;27;20474;-65
2023/01/10 06:55:59;;;;;;;31.63;9.70;;;5.20;28.80;;;;;;5141224;27;20465;-65
2023/01/10 06:58:26;;;;;;;16.20;8.50;;;5.20;29.30;;;;;;5141553;27;20729;-65
2023/01/10 07:00:55;;;;;;;14.33;7.13;;;5.20;26.90;;;;;;5140838;27;20459;-65
2023/01/10 07:03:22;;;;;;;16.47;7.37;;;5.20;1.00;;;;;;5140867;27;20922;-65
2023/01/10 07:05:49;;;;;;;17.97;7.23;;;5.20;1.00;;;;;;5140310;27;20462;-65
2023/01/10 07:08:16;;;;;;;25.17;8.40;;;5.20;1.10;;;;;;5140491;27;20458;-66
2023/01/10 07:10:44;;;;;;;20.40;7.57;;;5.20;1.00;;;;;;5140934;27;20437;-65
2023/01/10 07:13:11;;;;;;;27.70;8.80;;;5.20;1.00;;;;;;5140544;27;20462;-65
2023/01/10 07:15:38;;;;;;;23.73;7.57;;;5.20;1.00;;;;;;5138725;27;20450;-65
2023/01/10 07:18:07;;;;;;;16.40;7.33;;;5.20;1.00;;;;;;5139410;27;20441;-65
2023/01/10 07:20:34;;;;;;;19.57;8.77;;;5.20;1.00;;;;;;5140169;27;20508;-65
2023/01/10 07:23:01;;;;;;;18.27;7.33;;;5.20;1.00;;;;;;5139819;27;20482;-65
2023/01/10 07:25:29;;;;;;;14.83;6.60;;;5.20;1.00;;;;;;5135011;27;20429;-65
2023/01/10 07:27:57;;;;;;;22.87;8.93;;;5.20;1.00;;;;;;5139213;27;20463;-65
2023/01/10 07:30:24;;;;;;;23.43;7.50;;;5.20;1.00;;;;;;5139981;27;20483;-65
2023/01/10 07:32:55;;;;;;;24.07;7.97;;;5.20;1.00;;;;;;5139725;27;20466;-65
2023/01/10 07:35:25;;;;;;;18.67;8.07;;;5.20;1.00;;;;;;5140227;27;20482;-65
2023/01/10 07:37:52;;;;;;;18.50;8.10;;;5.20;1.00;;;;;;5140316;27;20553;-65
2023/01/10 07:40:19;;;;;;;21.77;7.10;;;5.20;1.00;;;;;;5139954;27;20460;-64
2023/01/10 07:42:46;;;;;;;21.90;8.20;;;5.20;1.00;;;;;;5139695;27;20477;-65
2023/01/10 07:45:13;;;;;;;18.07;8.03;;;5.20;1.00;;;;;;5140083;27;20467;-65
2023/01/10 07:47:40;;;;;;;21.40;7.80;;;5.20;1.00;;;;;;5140008;27;20462;-65
2023/01/10 07:50:08;;;;;;;19.60;8.03;;;5.20;1.00;;;;;;5140165;27;20465;-65
2023/01/10 07:52:37;;;;;;;26.73;8.50;;;5.20;1.00;;;;;;5140424;27;20459;-65
2023/01/10 07:55:05;;;;;;;21.57;7.73;;;5.20;1.00;;;;;;5139978;27;20434;-65
2023/01/10 07:57:32;;;;;;;18.43;8.00;;;5.20;1.00;;;;;;5139995;27;20883;-65
2023/01/10 07:59:59;;;;;;;18.57;9.37;;;5.20;1.00;;;;;;5139998;27;20863;-65
2023/01/10 08:02:26;;;;;;;26.07;10.87;;;5.20;1.00;;;;;;5136991;27;20943;-65
2023/01/10 08:04:53;;;;;;;21.67;9.70;;;5.20;1.00;;;;;;5137988;27;20462;-65
2023/01/10 08:07:20;;;;;;;17.77;8.40;;;5.20;1.00;;;;;;5137870;27;20460;-65
2023/01/10 08:09:49;;;;;;;19.27;11.50;;;5.10;1.00;;;;;;5138101;27;20990;-65
2023/01/10 08:12:16;;;;;;;23.20;10.10;;;5.10;1.00;;;;;;5137600;27;20436;-64
2023/01/10 08:14:43;;;;;;;17.63;7.77;;;5.10;1.00;;;;;;5137886;27;20740;-65
2023/01/10 08:17:10;;;;;;;17.10;8.83;;;5.10;1.00;;;;;;5137684;27;20462;-65
2023/01/10 08:19:38;;;;;;;24.33;10.10;;;5.10;1.00;;;;;;5137895;27;20459;-65
2023/01/10 08:22:05;;;;;;;21.30;8.77;;;5.10;1.00;;;;;;5137812;27;20490;-65
2023/01/10 08:24:32;;;;;;;18.20;8.07;;;5.10;1.00;;;;;;5136628;27;20466;-65
2023/01/10 08:27:01;;;;;;;18.87;9.33;;;5.10;1.00;;;;;;5136339;27;20720;-65
2023/01/10 08:29:28;;;;;;;26.97;8.30;;;5.10;1.00;;;;;;5135407;27;20489;-65
2023/01/10 08:31:55;;;;;;;16.40;8.80;;;5.20;1.00;;;;;;5136247;27;20500;-65
2023/01/10 08:34:22;;;;;;;24.40;8.97;;;5.20;1.00;;;;;;5136950;27;20466;-65
2023/01/10 08:36:51;;;;;;;28.87;9.70;;;5.20;1.00;;;;;;5137507;27;20901;-65
2023/01/10 08:39:19;;;;;;;18.73;8.07;;;5.20;1.00;;;;;;5137997;27;20467;-65
2023/01/10 08:41:46;;;;;;;21.07;8.30;;;5.20;1.00;;;;;;5138725;27;20541;-65
2023/01/10 08:44:15;;;;;;;20.17;8.90;;;5.20;1.00;;;;;;5139158;27;20470;-65
2023/01/10 08:46:43;;;;;;;25.03;9.40;;;5.20;1.00;;;;;;5138648;27;20440;-65
2023/01/10 08:49:10;;;;;;;15.10;7.23;;;5.20;1.00;;;;;;5138130;27;20562;-65
2023/01/10 08:51:37;;;;;;;21.63;8.60;;;5.30;1.00;;;;;;5137872;27;20441;-65
2023/01/10 08:54:04;;;;;;;26.50;11.20;;;5.20;1.00;;;;;;5138141;27;20502;-65
2023/01/10 08:56:31;;;;;;;16.97;9.07;;;5.20;1.00;;;;;;5138816;27;20531;-64
2023/01/10 08:58:59;;;;;;;18.47;8.10;;;5.20;1.00;;;;;;5138508;27;20459;-65
2023/01/10 09:01:27;;;;;;;25.67;8.43;;;5.30;1.00;;;;;;5138681;27;20466;-65
2023/01/10 09:03:54;;;;;;;26.00;11.70;;;5.40;1.00;;;;;;5138491;27;20494;-65
2023/01/10 09:06:22;;;;;;;27.30;9.00;;;5.30;1.00;;;;;;5137934;27;20437;-65
2023/01/10 09:08:50;;;;;;;24.33;9.10;;;5.40;1.00;;;;;;5137863;27;20574;-65
2023/01/10 09:11:17;;;;;;;24.07;8.90;;;5.40;1.00;;;;;;5138291;27;20544;-65
2023/01/10 09:13:44;;;;;;;23.43;10.00;;;5.30;1.00;;;;;;5138244;27;20465;-65
2023/01/10 09:16:11;;;;;;;18.83;8.00;;;5.30;1.00;;;;;;5138543;27;20459;-65
2023/01/10 09:18:40;;;;;;;16.80;8.07;;;5.30;1.00;;;;;;5138772;27;20425;-64
2023/01/10 09:21:07;;;;;;;24.30;9.47;;;5.40;1.00;;;;;;5137970;27;20454;-65
2023/01/10 09:23:34;;;;;;;20.47;9.83;;;5.40;1.00;;;;;;5138162;27;20475;-64
2023/01/10 09:26:02;;;;;;;22.20;8.87;;;5.40;1.00;;;;;;5136747;27;20466;-64
2023/01/10 09:28:29;;;;;;;22.93;10.27;;;5.40;1.00;;;;;;5127162;27;20823;-65
2023/01/10 09:30:56;;;;;;;27.50;9.90;;;5.40;1.00;;;;;;5137425;27;20772;-65
2023/01/10 09:33:23;;;;;;;19.07;7.90;;;5.40;1.00;;;;;;5138121;27;20470;-64
2023/01/10 09:35:52;;;;;;;24.47;8.10;;;5.50;1.00;;;;;;5137810;27;20465;-64
2023/01/10 09:38:21;;;;;;;24.80;7.43;;;5.50;1.00;;;;;;5137613;27;20459;-65
2023/01/10 09:41:06;;;;;;;21.87;8.23;;;5.60;1.00;;;;;;5138011;27;20466;-65
2023/01/10 09:43:49;;;;;;;20.83;7.10;;;5.60;1.00;;;;;;5137757;27;20489;-65
2023/01/10 09:46:26;;;;;;;13.73;6.40;;;5.60;1.00;;;;;;5137929;27;20744;-65
2023/01/10 09:49:06;;;;;;;24.83;7.93;;;5.80;1.00;;;;;;5137451;27;20450;-65
2023/01/10 09:51:40;;;;;;;18.80;6.23;;;5.90;1.00;;;;;;5137224;27;20452;-65
2023/01/10 09:54:12;;;;;;;27.13;7.00;;;6.10;1.00;;;;;;5138231;27;20742;-65
2023/01/10 09:56:40;;;;;;;22.67;6.57;;;6.10;1.00;;;;;;5137696;27;20450;-65
2023/01/10 09:59:15;;;;;;;22.60;6.70;;;6.10;1.00;;;;;;5137594;27;20440;-65
2023/01/10 10:01:42;;;;;;;20.33;7.00;;;6.30;1.00;;;;;;5137892;27;20468;-65
2023/01/10 10:04:22;;;;;;;21.70;7.10;;;6.30;1.00;;;;;;5137863;27;20490;-65
2023/01/10 10:06:51;;;;;;;19.20;6.63;;;6.30;1.00;;;;;;5137764;27;20520;-65
2023/01/10 10:09:23;;;;;;;19.40;6.40;;;6.40;1.00;;;;;;5137911;27;20433;-65
2023/01/10 10:12:07;;;;;;;18.33;6.13;;;6.40;1.00;;;;;;5137372;27;20554;-64
2023/01/10 10:14:47;;;;;;;17.30;6.53;;;6.40;1.00;;;;;;5137383;28;20761;-64
2023/01/10 10:17:37;;;;;;;21.60;6.87;;;6.30;1.00;;;;;;5136672;28;20460;-64
2023/01/10 10:20:31;;;;;;;18.07;6.63;;;6.30;1.00;;;;;;5137116;28;20462;-64
2023/01/10 10:23:15;;;;;;;16.83;6.43;;;6.50;1.00;;;;;;5119019;28;20491;-65
2023/01/10 10:25:56;;;;;;;18.73;8.90;;;6.50;1.00;;;;;;5137372;28;20463;-65
2023/01/10 10:28:42;;;;;;;22.27;9.30;;;6.70;1.00;;;;;;5137156;28;20463;-65
2023/01/10 10:31:15;;;;;;;23.60;6.40;;;7.00;1.00;;;;;;5137139;27;20942;-64
2023/01/10 10:33:55;;;;;;;20.70;6.23;;;7.20;1.00;;;;;;5137472;27;20461;-64
2023/01/10 10:36:25;;;;;;;18.10;6.17;;;7.20;99.90;;;;;;5137584;27;20458;-64
2023/01/10 10:38:57;;;;;;;15.87;6.37;;;7.50;1.00;;;;;;5137332;27;20450;-65
2023/01/10 10:41:31;;;;;;;18.97;6.27;;;7.60;99.90;;;;;;5137479;27;20949;-64
2023/01/10 10:44:03;;;;;;;18.50;5.80;;;7.50;99.90;;;;;;5137572;27;20510;-64
2023/01/10 10:46:31;;;;;;;11.87;5.43;;;7.40;99.90;;;;;;5137610;27;20444;-64
2023/01/10 10:49:04;;;;;;;22.43;7.30;;;7.30;99.90;;;;;;5137624;27;20850;-64
2023/01/10 10:51:41;;;;;;;18.63;5.67;;;7.30;99.90;;;;;;5140924;27;20429;-64
2023/01/10 10:54:12;;;;;;;13.63;5.77;;;7.30;99.90;;;;;;5141685;27;20454;-64
2023/01/10 10:56:40;;;;;;;21.60;6.60;;;7.30;99.90;;;;;;5141237;27;20511;-64
2023/01/10 10:59:07;;;;;;;17.43;5.50;;;7.40;99.90;;;;;;5140906;27;20458;-64
2023/01/10 11:01:34;;;;;;;16.70;6.83;;;7.50;99.90;;;;;;5140594;27;20461;-64
2023/01/10 11:04:06;;;;;;;14.30;5.03;;;7.50;99.90;;;;;;5141082;27;20805;-64
2023/01/10 11:06:39;;;;;;;17.30;6.03;;;7.40;99.90;;;;;;5140930;27;20454;-64
2023/01/10 11:09:07;;;;;;;23.40;5.77;;;7.30;99.90;;;;;;5141374;27;20466;-64
2023/01/10 11:11:41;;;;;;;19.77;5.20;;;7.20;99.90;;;;;;5141144;27;20789;-64
2023/01/10 11:14:08;;;;;;;13.50;5.20;;;7.10;99.90;;;;;;5140939;27;20455;-64
2023/01/10 11:16:38;;;;;;;14.87;5.50;;;7.20;99.90;;;;;;5141170;27;20758;-64
2023/01/10 11:19:17;;;;;;;13.70;5.90;;;7.10;99.90;;;;;;5140674;27;20459;-64
2023/01/10 11:21:49;;;;;;;11.97;5.33;;;7.20;99.90;;;;;;5140680;27;20793;-64
2023/01/10 11:24:23;;;;;;;19.77;6.33;;;7.20;99.90;;;;;;5140799;27;20508;-64
2023/01/10 11:26:52;;;;;;;21.63;5.40;;;7.20;99.90;;;;;;5140640;27;20544;-64
2023/01/10 11:29:24;;;;;;;10.40;4.57;;;7.20;99.90;;;;;;5139418;27;20798;-64
2023/01/10 11:31:53;;;;;;;17.77;5.43;;;7.10;99.90;;;;;;5126395;27;20785;-64
2023/01/10 11:34:25;;;;;;;24.03;5.93;;;7.10;99.90;;;;;;5139876;27;20548;-64
2023/01/10 11:37:00;;;;;;;19.23;6.20;;;7.20;99.90;;;;;;5139868;27;20470;-64
2023/01/10 11:39:28;;;;;;;16.43;4.73;;;7.30;99.90;;;;;;5139744;27;20476;-60
2023/01/10 11:41:58;;;;;;;19.13;5.20;;;7.30;99.90;;;;;;5139856;27;20469;-62
2023/01/10 11:44:28;;;;;;;11.57;4.20;;;7.30;99.90;;;;;;5139864;27;21026;-61
2023/01/10 11:46:56;;;;;;;16.40;4.50;;;7.30;99.90;;;;;;5139749;27;20437;-59
2023/01/10 11:49:31;;;;;;;14.67;5.07;;;7.40;99.90;;;;;;5140126;27;20750;-59
2023/01/10 11:52:02;;;;;;;10.47;4.30;;;7.40;99.90;;;;;;5140118;27;20925;-59
2023/01/10 11:54:31;;;;;;;15.83;4.83;;;7.40;99.90;;;;;;5140114;27;20846;-61
2023/01/10 11:57:02;;;;;;;18.97;5.37;;;7.40;99.90;;;;;;5140069;27;20728;-60
2023/01/10 11:59:29;;;;;;;15.50;4.43;;;7.30;99.90;;;;;;5139463;27;20742;-58
2023/01/10 12:01:59;;;;;;;21.47;4.80;;;7.40;99.90;;;;;;5126281;27;20471;-61
2023/01/10 12:04:29;;;;;;;16.80;5.13;;;7.50;99.90;;;;;;5131764;27;20539;-61
2023/01/10 12:07:03;;;;;;;16.37;6.03;;;7.50;99.90;;;;;;5139757;27;20797;-58
2023/01/10 12:09:39;;;;;;;20.13;4.60;;;7.50;99.90;;;;;;5138518;27;20458;-60
2023/01/10 12:12:20;;;;;;;14.77;4.70;;;7.50;99.90;;;;;;5139514;27;20437;-61
2023/01/10 12:14:47;;;;;;;15.50;4.67;;;7.50;99.90;;;;;;5139003;27;20454;-59
2023/01/10 12:17:24;;;;;;;15.37;4.40;;;7.50;99.90;;;;;;5139500;27;20455;-60
2023/01/10 12:19:54;;;;;;;15.00;5.03;;;7.50;99.90;;;;;;5139346;27;20455;-62
2023/01/10 12:22:27;;;;;;;13.13;4.33;;;7.50;99.90;;;;;;5139601;27;20907;-61
2023/01/10 12:24:55;;;;;;;15.40;4.90;;;7.50;99.90;;;;;;5138525;27;20490;-58
2023/01/10 12:27:26;;;;;;;18.57;4.63;;;7.50;99.90;;;;;;5138577;27;20450;-59
2023/01/10 12:30:01;;;;;;;9.57;3.93;;;7.50;99.90;;;;;;5136633;27;20493;-61
2023/01/10 12:32:34;;;;;;;24.03;5.13;;;7.60;99.90;;;;;;5131053;27;20762;-59
2023/01/10 12:35:04;;;;;;;22.23;5.00;;;7.70;99.90;;;;;;5134714;27;20467;-59
2023/01/10 12:37:37;;;;;;;18.53;4.93;;;7.70;99.90;;;;;;5144382;27;20453;-61
2023/01/10 12:40:11;;;;;;;12.97;3.83;;;7.60;99.90;;;;;;5147958;27;20461;-61
2023/01/10 12:45:40;;;;;;;14.57;4.83;;;7.60;99.90;;;;;;5132490;27;20804;-60
2023/01/10 12:48:15;;;;;;;21.37;5.37;;;7.50;99.90;;;;;;5131257;27;20477;-59
2023/01/10 12:50:45;;;;;;;18.03;5.33;;;7.50;99.90;;;;;;5141046;27;20465;-60
2023/01/10 12:53:23;;;;;;;18.17;4.30;;;7.50;99.90;;;;;;5135989;27;20469;-57
2023/01/10 12:55:55;;;;;;;14.83;5.50;;;7.50;99.90;;;;;;5138938;27;20516;-59
2023/01/10 12:58:31;;;;;;;17.87;4.53;;;7.50;99.90;;;;;;5151201;27;21000;-59
2023/01/10 13:01:02;;;;;;;19.47;5.10;;;7.50;99.90;;;;;;5141319;27;20457;-60
2023/01/10 13:03:32;;;;;;;20.47;5.60;;;7.50;99.90;;;;;;5146680;27;20487;-58
2023/01/10 13:05:59;;;;;;;17.57;4.73;;;7.60;99.90;;;;;;5142396;27;20465;-58
2023/01/10 13:08:30;;;;;;;18.00;8.17;;;7.60;99.90;;;;;;5143818;27;20441;-57
2023/01/10 13:10:59;;;;;;;18.00;5.40;;;7.70;99.90;;;;;;5142905;27;20467;-59
2023/01/10 13:13:34;;;;;;;18.47;5.70;;;7.70;99.90;;;;;;5135056;27;20778;-60
2023/01/10 13:16:22;;;;;;;17.70;6.47;;;7.70;99.90;;;;;;5143092;27;20457;-58
2023/01/10 13:19:02;;;;;;;13.33;5.73;;;7.60;99.90;;;;;;5131047;27;20458;-57